Time;durP1;ratioP1;P1;durP2;ratioP2;P2;SDS_P1;SDS_P2;PMS_P1;PMS_P2;Temp;Humidity;BMP_temperature;BMP_pressure;BME280_temperature;BME280_humidity;BME280_pressure;Samples;Min_cycle;Max_cycle;Signal;HPM_P1;HPM_P2
2023/09/20 00:00:11;;;;;;;;;;;16.60;99.90;;;;;;4973161;28;19926;-31
2023/09/20 00:02:39;;;;;;;;;;;16.60;99.90;;;;;;4970775;28;20382;-31
2023/09/20 00:05:07;;;;;;;;;;;16.60;99.90;;;;;;4965751;28;20065;-30
2023/09/20 00:07:35;;;;;;;;;;;16.60;99.90;;;;;;4973798;28;19954;-31
2023/09/20 00:10:01;;;;;;;;;;;16.60;99.90;;;;;;4972187;28;20453;-31
2023/09/20 00:12:28;;;;;;;;;;;16.70;99.90;;;;;;4972686;28;19926;-30
2023/09/20 00:14:55;;;;;;;;;;;16.70;99.90;;;;;;4973186;28;19926;-32
2023/09/20 00:17:23;;;;;;;;;;;16.60;99.90;;;;;;4970763;28;19926;-33
2023/09/20 00:19:49;;;;;;;;;;;16.60;99.90;;;;;;4953775;28;19930;-32
2023/09/20 00:22:16;;;;;;;;;;;16.70;99.90;;;;;;4973961;28;20050;-31
2023/09/20 00:24:44;;;;;;;;;;;16.70;99.90;;;;;;4973183;28;19926;-31
2023/09/20 00:27:11;;;;;;;;;;;16.70;99.90;;;;;;4967062;28;19926;-30
2023/09/20 00:29:38;;;;;;;;;;;16.70;99.90;;;;;;4970672;28;19930;-32
2023/09/20 00:32:05;;;;;;;;;;;16.70;99.90;;;;;;4971267;28;19926;-31
2023/09/20 00:34:32;;;;;;;;;;;16.80;99.90;;;;;;4973251;28;20374;-30
2023/09/20 00:36:58;;;;;;;;;;;16.80;99.90;;;;;;4955098;28;19936;-31
2023/09/20 00:39:25;;;;;;;;;;;16.80;99.90;;;;;;4971611;28;19926;-32
2023/09/20 00:41:53;;;;;;;;;;;16.80;99.90;;;;;;4971797;28;20072;-33
2023/09/20 00:44:20;;;;;;;;;;;16.80;99.90;;;;;;4972037;28;19930;-31
2023/09/20 00:46:47;;;;;;;;;;;16.80;99.90;;;;;;4973386;28;19965;-30
2023/09/20 00:49:14;;;;;;;;;;;16.80;99.90;;;;;;4972932;28;19992;-31
2023/09/20 00:51:40;;;;;;;;;;;16.80;99.90;;;;;;4973088;28;20512;-31
2023/09/20 00:54:09;;;;;;;;;;;16.80;99.90;;;;;;4971817;28;20306;-32
2023/09/20 00:56:35;;;;;;;;;;;16.80;99.90;;;;;;4972282;28;19926;-32
2023/09/20 00:59:06;;;;;;;;;;;16.90;99.90;;;;;;4973291;28;19980;-31
2023/09/20 01:01:33;;;;;;;;;;;16.90;99.90;;;;;;4971498;28;19926;-31
2023/09/20 01:04:00;;;;;;;;;;;16.90;99.90;;;;;;4971225;28;20363;-30
2023/09/20 01:06:27;;;;;;;;;;;16.90;99.90;;;;;;4971884;28;20394;-31
2023/09/20 01:08:55;;;;;;;;;;;16.90;99.90;;;;;;4955638;28;19926;-31
2023/09/20 01:11:22;;;;;;;;;;;17.00;99.90;;;;;;4970910;28;19953;-31
2023/09/20 01:13:49;;;;;;;;;;;16.90;99.90;;;;;;4967226;28;20390;-30
2023/09/20 01:16:17;;;;;;;;;;;16.90;99.90;;;;;;4972218;28;19969;-31
2023/09/20 01:18:44;;;;;;;;;;;17.00;99.90;;;;;;4970862;28;19934;-32
2023/09/20 01:21:11;;;;;;;;;;;16.90;99.90;;;;;;4971164;28;20020;-31
2023/09/20 01:23:42;;;;;;;;;;;16.90;99.90;;;;;;4971682;28;20037;-33
2023/09/20 01:26:09;;;;;;;;;;;17.00;99.90;;;;;;4972040;28;20425;-31
2023/09/20 01:28:35;;;;;;;;;;;17.00;99.90;;;;;;4955954;28;19934;-32
2023/09/20 01:31:04;;;;;;;;;;;17.00;99.90;;;;;;4970698;28;19973;-32
2023/09/20 01:33:31;;;;;;;;;;;17.00;99.90;;;;;;4972307;28;19988;-32
2023/09/20 01:35:58;;;;;;;;;;;17.00;99.90;;;;;;4971818;28;19925;-31
2023/09/20 01:38:25;;;;;;;;;;;17.00;99.90;;;;;;4971009;28;20390;-32
2023/09/20 01:40:55;;;;;;;;;;;17.10;99.90;;;;;;4969723;28;20370;-32
2023/09/20 01:43:22;;;;;;;;;;;17.00;99.90;;;;;;4956231;28;19927;-31
2023/09/20 01:45:48;;;;;;;;;;;17.10;99.90;;;;;;4970998;28;20058;-31
2023/09/20 01:48:15;;;;;;;;;;;17.10;99.90;;;;;;4967223;28;19931;-31
2023/09/20 01:50:42;;;;;;;;;;;17.10;99.90;;;;;;4936577;29;19973;-34
2023/09/20 01:53:10;;;;;;;;;;;17.10;99.90;;;;;;4942398;29;19990;-34
2023/09/20 01:55:37;;;;;;;;;;;17.00;99.90;;;;;;4952186;28;19974;-31
2023/09/20 01:58:06;;;;;;;;;;;17.10;99.90;;;;;;4952286;28;19926;-30
2023/09/20 02:00:36;;;;;;;;;;;17.10;99.90;;;;;;4952250;28;20026;-32
2023/09/20 02:03:10;;;;;;;;;;;17.10;99.90;;;;;;4952674;28;20413;-31
2023/09/20 02:05:37;;;;;;;;;;;17.10;99.90;;;;;;4952817;29;20355;-31
2023/09/20 02:08:04;;;;;;;;;;;17.10;99.90;;;;;;4952072;28;20387;-33
2023/09/20 02:10:31;;;;;;;;;;;17.10;99.90;;;;;;4934760;29;19934;-32
2023/09/20 02:12:59;;;;;;;;;;;17.10;99.90;;;;;;4953284;29;19926;-33
2023/09/20 02:15:27;;;;;;;;;;;17.10;99.90;;;;;;4968892;28;19933;-31
2023/09/20 02:17:54;;;;;;;;;;;17.20;99.90;;;;;;4934776;29;19930;-31
2023/09/20 02:20:21;;;;;;;;;;;17.20;99.90;;;;;;4953936;28;20407;-31
2023/09/20 02:22:48;;;;;;;;;;;17.20;99.90;;;;;;4955964;29;20015;-31
2023/09/20 02:25:20;;;;;;;;;;;17.20;99.90;;;;;;4956368;29;19938;-32
2023/09/20 02:27:47;;;;;;;;;;;17.20;99.90;;;;;;4966136;28;20026;-31
2023/09/20 02:30:16;;;;;;;;;;;17.20;99.90;;;;;;4954772;28;19927;-31
2023/09/20 02:32:44;;;;;;;;;;;17.20;99.90;;;;;;4971675;28;19938;-32
2023/09/20 02:35:10;;;;;;;;;;;17.20;99.90;;;;;;4955840;28;20413;-32
2023/09/20 02:37:37;;;;;;;;;;;17.20;99.90;;;;;;4954862;28;19926;-31
2023/09/20 02:40:07;;;;;;;;;;;17.20;99.90;;;;;;4970915;28;19926;-32
2023/09/20 02:42:39;;;;;;;;;;;17.20;99.90;;;;;;4955647;28;19926;-32
2023/09/20 02:45:07;;;;;;;;;;;17.30;99.90;;;;;;4971472;28;19931;-32
2023/09/20 02:47:34;;;;;;;;;;;17.20;99.90;;;;;;4970718;28;19927;-32
2023/09/20 02:50:04;;;;;;;;;;;17.30;99.90;;;;;;4970725;28;19978;-32
2023/09/20 02:52:33;;;;;;;;;;;17.20;99.90;;;;;;4969999;28;19930;-32
2023/09/20 02:55:00;;;;;;;;;;;17.20;99.90;;;;;;4953892;28;19926;-32
2023/09/20 02:57:29;;;;;;;;;;;17.20;99.90;;;;;;4955483;29;19953;-32
2023/09/20 02:59:59;;;;;;;;;;;17.20;99.90;;;;;;4956222;28;19927;-33
2023/09/20 03:02:25;;;;;;;;;;;17.20;99.90;;;;;;4954471;28;19933;-32
2023/09/20 03:04:53;;;;;;;;;;;17.20;99.90;;;;;;4954615;28;20009;-32
2023/09/20 03:07:21;;;;;;;;;;;17.20;99.90;;;;;;4955106;28;19977;-31
2023/09/20 03:09:48;;;;;;;;;;;17.20;99.90;;;;;;4954381;28;20479;-31
2023/09/20 03:12:15;;;;;;;;;;;17.10;99.90;;;;;;4956300;28;20375;-32
2023/09/20 03:14:44;;;;;;;;;;;17.10;99.90;;;;;;4970090;28;20347;-32
2023/09/20 03:17:12;;;;;;;;;;;17.10;99.90;;;;;;4970299;28;19931;-33
2023/09/20 03:19:39;;;;;;;;;;;17.10;99.90;;;;;;4953545;28;19962;-31
2023/09/20 03:22:06;;;;;;;;;;;17.20;99.90;;;;;;4954330;28;19954;-31
2023/09/20 03:24:36;;;;;;;;;;;17.20;99.90;;;;;;4954781;29;19930;-32
2023/09/20 03:27:02;;;;;;;;;;;17.10;99.90;;;;;;4968962;28;19926;-32
2023/09/20 03:29:29;;;;;;;;;;;17.10;99.90;;;;;;4970029;28;19974;-32
2023/09/20 03:31:56;;;;;;;;;;;17.10;99.90;;;;;;4953551;28;19926;-31
2023/09/20 03:34:23;;;;;;;;;;;17.10;99.90;;;;;;4945061;29;19933;-31
2023/09/20 03:36:51;;;;;;;;;;;17.10;99.90;;;;;;4953278;28;19930;-32
2023/09/20 03:39:21;;;;;;;;;;;17.10;99.90;;;;;;4953663;29;20021;-32
2023/09/20 03:41:51;;;;;;;;;;;17.10;99.90;;;;;;4970139;28;19926;-31
2023/09/20 03:44:17;;;;;;;;;;;17.00;99.90;;;;;;4954925;28;20035;-32
2023/09/20 03:46:44;;;;;;;;;;;17.00;99.90;;;;;;4970331;28;19981;-31
2023/09/20 03:49:11;;;;;;;;;;;17.00;99.90;;;;;;4974030;28;19936;-32
2023/09/20 03:51:38;;;;;;;;;;;17.00;99.90;;;;;;4969224;28;20313;-31
2023/09/20 03:54:05;;;;;;;;;;;17.00;99.90;;;;;;4962632;28;19964;-32
2023/09/20 03:56:32;;;;;;;;;;;16.90;99.90;;;;;;4969513;28;20017;-32
2023/09/20 03:59:00;;;;;;;;;;;16.90;99.90;;;;;;4974523;28;19965;-32
2023/09/20 04:01:28;;;;;;;;;;;16.90;99.90;;;;;;4969557;28;19960;-33
2023/09/20 04:03:54;;;;;;;;;;;16.80;99.90;;;;;;4972282;28;20015;-32
2023/09/20 04:06:23;;;;;;;;;;;16.80;99.90;;;;;;4973520;28;20267;-33
2023/09/20 04:08:50;;;;;;;;;;;16.80;99.90;;;;;;4972501;28;19969;-31
2023/09/20 04:11:16;;;;;;;;;;;16.80;99.90;;;;;;4972216;28;19932;-34
2023/09/20 04:13:43;;;;;;;;;;;16.70;99.90;;;;;;4967082;28;20361;-32
2023/09/20 04:16:11;;;;;;;;;;;16.70;99.90;;;;;;4966651;28;20280;-31
2023/09/20 04:18:38;;;;;;;;;;;16.70;99.90;;;;;;4973277;28;20390;-32
2023/09/20 04:21:04;;;;;;;;;;;16.60;99.90;;;;;;4971901;28;20436;-32
2023/09/20 04:23:32;;;;;;;;;;;16.60;99.90;;;;;;4965596;28;20338;-33
2023/09/20 04:25:58;;;;;;;;;;;16.50;99.90;;;;;;4972246;28;19930;-31
2023/09/20 04:28:25;;;;;;;;;;;16.50;99.90;;;;;;4969595;28;20382;-32
2023/09/20 04:30:52;;;;;;;;;;;16.50;99.90;;;;;;4972997;28;19930;-31
2023/09/20 04:33:20;;;;;;;;;;;16.50;99.90;;;;;;4974094;28;19973;-31
2023/09/20 04:35:47;;;;;;;;;;;16.40;99.90;;;;;;4970632;28;19976;-32
2023/09/20 04:38:15;;;;;;;;;;;16.40;99.90;;;;;;4974698;28;20046;-31
2023/09/20 04:40:41;;;;;;;;;;;16.40;99.90;;;;;;4972557;28;19973;-32
2023/09/20 04:43:08;;;;;;;;;;;16.40;99.90;;;;;;4972854;28;20330;-32
2023/09/20 04:45:35;;;;;;;;;;;16.40;99.90;;;;;;4972264;28;20358;-31
2023/09/20 04:48:01;;;;;;;;;;;16.30;99.90;;;;;;4966676;28;20011;-33
2023/09/20 04:50:29;;;;;;;;;;;16.30;99.90;;;;;;4965085;28;19973;-33
2023/09/20 04:52:56;;;;;;;;;;;16.40;99.90;;;;;;4969526;28;19934;-32
2023/09/20 04:55:24;;;;;;;;;;;16.30;99.90;;;;;;4972033;28;19930;-32
2023/09/20 04:57:51;;;;;;;;;;;16.30;99.90;;;;;;4968754;28;20311;-31
2023/09/20 05:00:23;;;;;;;;;;;16.20;99.90;;;;;;4971379;28;20342;-32
2023/09/20 05:02:50;;;;;;;;;;;16.20;99.90;;;;;;4968843;28;19960;-33
2023/09/20 05:05:17;;;;;;;;;;;16.20;99.90;;;;;;4970797;28;19926;-31
2023/09/20 05:07:45;;;;;;;;;;;16.20;99.90;;;;;;4967225;28;20376;-31
2023/09/20 05:10:12;;;;;;;;;;;16.10;99.90;;;;;;4950296;28;19934;-34
2023/09/20 05:12:39;;;;;;;;;;;16.10;99.90;;;;;;4969924;28;19989;-32
2023/09/20 05:15:06;;;;;;;;;;;16.10;99.90;;;;;;4966764;28;19926;-32
2023/09/20 05:17:34;;;;;;;;;;;16.10;99.90;;;;;;4971182;28;20869;-32
2023/09/20 05:20:01;;;;;;;;;;;16.10;99.90;;;;;;4968807;28;19969;-32
2023/09/20 05:22:30;;;;;;;;;;;16.10;99.90;;;;;;4960041;28;19941;-32
2023/09/20 05:24:58;;;;;;;;;;;16.00;99.90;;;;;;4967466;28;19926;-33
2023/09/20 05:27:24;;;;;;;;;;;16.00;99.90;;;;;;4957401;28;19930;-31
2023/09/20 05:29:52;;;;;;;;;;;16.10;99.90;;;;;;4952877;29;19926;-32
2023/09/20 05:32:19;;;;;;;;;;;16.00;99.90;;;;;;4947645;28;19933;-32
2023/09/20 05:34:46;;;;;;;;;;;16.00;99.90;;;;;;4978531;28;19933;-32
2023/09/20 05:37:13;;;;;;;;;;;16.00;99.90;;;;;;4971023;28;19940;-32
2023/09/20 05:39:40;;;;;;;;;;;16.00;99.90;;;;;;4972215;28;20011;-34
2023/09/20 05:42:09;;;;;;;;;;;16.00;99.90;;;;;;4971973;28;19926;-32
2023/09/20 05:44:36;;;;;;;;;;;16.00;99.90;;;;;;4972170;28;19969;-32
2023/09/20 05:47:05;;;;;;;;;;;16.00;99.90;;;;;;4971741;28;19970;-33
2023/09/20 05:49:31;;;;;;;;;;;16.00;99.90;;;;;;4969855;28;20285;-32
2023/09/20 05:51:58;;;;;;;;;;;16.00;99.90;;;;;;4971870;28;20279;-34
2023/09/20 05:54:25;;;;;;;;;;;16.00;99.90;;;;;;4971063;28;20267;-31
2023/09/20 05:56:52;;;;;;;;;;;16.00;99.90;;;;;;4974605;28;19926;-32
2023/09/20 05:59:20;;;;;;;;;;;16.00;99.90;;;;;;4974969;28;19930;-31
2023/09/20 06:01:46;;;;;;;;;;;16.00;99.90;;;;;;4974228;28;19970;-32
2023/09/20 06:04:13;;;;;;;;;;;16.00;99.90;;;;;;4973365;28;20635;-31
2023/09/20 06:06:40;;;;;;;;;;;16.00;99.90;;;;;;4957493;28;20029;-31
2023/09/20 06:09:08;;;;;;;;;;;16.00;99.90;;;;;;4971331;28;19926;-32
2023/09/20 06:11:35;;;;;;;;;;;16.00;99.90;;;;;;4972941;28;19965;-32
2023/09/20 06:14:04;;;;;;;;;;;16.00;99.90;;;;;;4988108;28;20352;-31
2023/09/20 06:16:32;;;;;;;;;;;16.00;99.90;;;;;;4993246;28;19926;-33
2023/09/20 06:18:59;;;;;;;;;;;16.00;99.90;;;;;;4994399;28;20370;-32
2023/09/20 06:21:25;;;;;;;;;;;16.00;99.90;;;;;;4993248;28;19926;-31
2023/09/20 06:23:52;;;;;;;;;;;16.10;99.90;;;;;;4974593;28;19930;-32
2023/09/20 06:26:19;;;;;;;;;;;16.10;99.90;;;;;;4971295;28;19973;-34
2023/09/20 06:28:46;;;;;;;;;;;16.10;99.90;;;;;;4973885;28;19934;-32
2023/09/20 06:31:14;;;;;;;;;;;16.20;99.90;;;;;;4974898;28;19984;-32
2023/09/20 06:33:43;;;;;;;;;;;16.20;99.90;;;;;;4972813;28;19927;-33
2023/09/20 06:36:09;;;;;;;;;;;16.20;99.90;;;;;;4992779;28;19926;-34
2023/09/20 06:38:36;;;;;;;;;;;16.30;99.90;;;;;;4979715;28;19977;-32
2023/09/20 06:41:04;;;;;;;;;;;16.30;99.90;;;;;;4981283;28;19938;-31
2023/09/20 06:43:30;;;;;;;;;;;16.40;99.90;;;;;;4993202;28;19930;-33
2023/09/20 06:45:59;;;;;;;;;;;16.40;99.90;;;;;;4986040;28;19973;-31
2023/09/20 06:48:25;;;;;;;;;;;16.50;99.90;;;;;;4974711;28;19934;-31
2023/09/20 06:50:54;;;;;;;;;;;16.50;99.90;;;;;;4974586;28;20454;-31
2023/09/20 06:53:23;;;;;;;;;;;16.60;99.90;;;;;;4974263;28;19926;-32
2023/09/20 06:55:50;;;;;;;;;;;16.60;99.90;;;;;;4972309;28;19989;-31
2023/09/20 06:58:16;;;;;;;;;;;16.70;99.90;;;;;;4973116;28;19930;-32
2023/09/20 07:00:43;;;;;;;;;;;16.70;99.90;;;;;;4973059;28;20482;-32
2023/09/20 07:03:10;;;;;;;;;;;16.80;99.90;;;;;;4974418;28;19957;-32
2023/09/20 07:05:36;;;;;;;;;;;16.80;99.90;;;;;;4974163;28;20366;-31
2023/09/20 07:08:05;;;;;;;;;;;16.90;99.90;;;;;;4973987;28;20349;-32
2023/09/20 07:10:32;;;;;;;;;;;16.90;99.90;;;;;;4973493;28;20424;-32
2023/09/20 07:12:59;;;;;;;;;;;17.00;99.90;;;;;;4974250;28;20355;-32
2023/09/20 07:15:27;;;;;;;;;;;17.00;99.90;;;;;;4972664;28;20421;-33
2023/09/20 07:18:00;;;;;;;;;;;17.10;99.90;;;;;;4974145;28;19973;-33
2023/09/20 07:20:28;;;;;;;;;;;17.10;99.90;;;;;;4973941;28;19977;-32
2023/09/20 07:22:54;;;;;;;;;;;17.10;99.90;;;;;;4956990;28;19933;-34
2023/09/20 07:25:27;;;;;;;;;;;17.10;99.90;;;;;;4974243;28;19981;-33
2023/09/20 07:27:55;;;;;;;;;;;17.20;99.90;;;;;;4973231;28;20315;-33
2023/09/20 07:30:22;;;;;;;;;;;17.20;99.90;;;;;;4974058;28;19933;-33
2023/09/20 07:32:49;;;;;;;;;;;17.30;99.90;;;;;;4973803;28;19930;-35
2023/09/20 07:35:26;;;;;;;;;;;17.40;99.90;;;;;;4973727;28;19981;-32
2023/09/20 07:37:56;;;;;;;;;;;17.60;99.90;;;;;;4973682;28;19934;-34
2023/09/20 07:40:28;;;;;;;;;;;17.70;99.90;;;;;;4968411;28;20404;-32
2023/09/20 07:42:59;;;;;;;;;;;17.80;99.90;;;;;;4969483;28;20275;-31
2023/09/20 07:45:27;;;;;;;;;;;17.80;99.90;;;;;;4958570;28;20514;-31
2023/09/20 07:47:54;;;;;;;;;;;17.90;99.90;;;;;;4971694;28;19926;-31
2023/09/20 07:50:21;;;;;;;;;;;17.90;99.90;;;;;;4973313;28;19926;-32
2023/09/20 07:52:50;;;;;;;;;;;17.90;99.90;;;;;;4969408;28;19930;-33
2023/09/20 07:55:17;;;;;;;;;;;17.90;99.90;;;;;;4971326;28;19980;-33
2023/09/20 07:57:46;;;;;;;;;;;17.90;99.90;;;;;;4973383;28;19957;-32
2023/09/20 08:00:15;;;;;;;;;;;17.80;99.90;;;;;;4973229;28;19930;-34
2023/09/20 08:02:46;;;;;;;;;;;17.80;99.90;;;;;;4971909;28;19926;-33
2023/09/20 08:05:13;;;;;;;;;;;17.80;99.90;;;;;;4971830;28;19934;-32
2023/09/20 08:07:39;;;;;;;;;;;17.80;99.90;;;;;;4971451;28;20378;-33
2023/09/20 08:10:08;;;;;;;;;;;17.80;99.90;;;;;;4970777;28;19942;-30
2023/09/20 08:12:35;;;;;;;;;;;17.90;99.90;;;;;;4954605;28;19926;-31
2023/09/20 08:15:04;;;;;;;;;;;17.90;99.90;;;;;;4972631;28;19926;-33
2023/09/20 08:20:21;;;;;;;;;;;18.00;99.90;;;;;;4971347;28;19926;-34
2023/09/20 09:01:10;;;;;;;;;;;18.10;99.90;;;;;;4950926;28;19935;-33
2023/09/20 09:03:38;;;;;;;;;;;18.20;99.90;;;;;;4970092;28;19926;-33
2023/09/20 09:06:05;;;;;;;;;;;18.20;99.90;;;;;;4972419;28;19930;-32
2023/09/20 09:08:32;;;;;;;;;;;18.20;99.90;;;;;;4969816;28;19933;-33
2023/09/20 09:10:59;;;;;;;;;;;18.20;99.90;;;;;;4971309;28;19926;-31
2023/09/20 09:13:25;;;;;;;;;;;18.20;99.90;;;;;;4971369;28;19927;-32
2023/09/20 09:15:52;;;;;;;;;;;18.20;99.90;;;;;;4971445;28;19954;-33
2023/09/20 09:18:19;;;;;;;;;;;18.20;99.90;;;;;;4971414;28;19980;-34
2023/09/20 09:20:47;;;;;;;;;;;18.30;99.90;;;;;;4972519;28;19926;-29
2023/09/20 09:23:13;;;;;;;;;;;18.30;99.90;;;;;;4969632;28;19930;-32
2023/09/20 09:25:40;;;;;;;;;;;18.30;99.90;;;;;;4971558;28;19926;-32
2023/09/20 09:28:07;;;;;;;;;;;18.40;99.90;;;;;;4965272;28;19962;-32
2023/09/20 09:30:34;;;;;;;;;;;18.40;99.90;;;;;;4955723;29;19973;-33
2023/09/20 09:33:01;;;;;;;;;;;18.50;99.90;;;;;;4956561;28;19926;-32
2023/09/20 09:35:28;;;;;;;;;;;18.50;99.90;;;;;;4956608;29;19973;-34
2023/09/20 09:38:00;;;;;;;;;;;18.60;99.90;;;;;;4956535;29;19981;-33
2023/09/20 09:40:28;;;;;;;;;;;18.70;99.90;;;;;;4956327;28;19926;-32
2023/09/20 09:42:55;;;;;;;;;;;18.80;99.90;;;;;;4972696;28;19926;-33
2023/09/20 09:45:31;;;;;;;;;;;18.80;99.90;;;;;;4974608;28;19926;-32
2023/09/20 09:47:59;;;;;;;;;;;18.90;99.90;;;;;;4972057;28;19969;-33
2023/09/20 09:50:26;;;;;;;;;;;19.00;99.90;;;;;;4975412;28;19926;-32
2023/09/20 09:52:53;;;;;;;;;;;19.00;99.90;;;;;;4974509;28;19930;-32
2023/09/20 09:55:21;;;;;;;;;;;19.00;99.90;;;;;;4975946;28;19938;-33
2023/09/20 09:57:49;;;;;;;;;;;19.10;99.90;;;;;;4958391;28;19926;-32
2023/09/20 10:00:16;;;;;;;;;;;19.00;99.90;;;;;;4974459;28;19933;-33
2023/09/20 10:02:42;;;;;;;;;;;19.00;99.90;;;;;;4973488;28;19948;-30
2023/09/20 10:05:10;;;;;;;;;;;19.00;99.90;;;;;;4975229;28;19930;-32
2023/09/20 10:07:37;;;;;;;;;;;19.00;99.90;;;;;;4974274;28;20021;-32
2023/09/20 10:10:08;;;;;;;;;;;19.00;99.90;;;;;;4975357;28;20271;-32
2023/09/20 10:12:38;;;;;;;;;;;19.00;99.90;;;;;;4975443;28;19930;-32
2023/09/20 10:15:07;;;;;;;;;;;19.10;99.90;;;;;;4975228;28;19933;-32
2023/09/20 10:17:34;;;;;;;;;;;19.10;99.90;;;;;;4975438;28;19926;-32
2023/09/20 10:20:07;;;;;;;;;;;19.10;99.90;;;;;;4973719;28;19931;-34
2023/09/20 10:22:40;;;;;;;;;;;19.20;99.90;;;;;;4955794;28;19930;-33
2023/09/20 10:25:07;;;;;;;;;;;19.20;99.90;;;;;;4955778;29;19933;-34
2023/09/20 10:27:34;;;;;;;;;;;19.20;99.90;;;;;;4957385;28;20366;-34
2023/09/20 10:30:05;;;;;;;;;;;19.30;99.90;;;;;;4974668;28;20008;-32
2023/09/20 10:32:32;;;;;;;;;;;19.30;99.90;;;;;;4973850;28;19938;-32
2023/09/20 10:35:18;;;;;;;;;;;19.30;99.90;;;;;;4956439;28;19926;-32
2023/09/20 10:37:56;;;;;;;;;;;19.30;99.90;;;;;;4973336;28;20349;-33
2023/09/20 10:40:23;;;;;;;;;;;19.30;99.90;;;;;;4971369;28;20420;-33
2023/09/20 10:42:53;;;;;;;;;;;19.30;99.90;;;;;;4973212;28;19927;-33
2023/09/20 10:45:21;;;;;;;;;;;19.30;99.90;;;;;;4973816;28;20009;-33
2023/09/20 10:47:49;;;;;;;;;;;19.40;99.90;;;;;;4956388;28;20487;-34
2023/09/20 10:50:15;;;;;;;;;;;19.40;99.90;;;;;;4974403;28;20389;-34
2023/09/20 10:52:54;;;;;;;;;;;19.40;99.90;;;;;;4973618;28;20095;-33
2023/09/20 10:55:37;;;;;;;;;;;19.50;99.90;;;;;;4974537;28;19933;-33
2023/09/20 10:58:04;;;;;;;;;;;19.50;99.90;;;;;;4973274;28;20354;-36
2023/09/20 11:00:34;;;;;;;;;;;19.40;99.90;;;;;;4956849;28;19977;-35
2023/09/20 11:03:04;;;;;;;;;;;19.40;99.90;;;;;;4972604;28;20378;-32
2023/09/20 11:05:32;;;;;;;;;;;19.40;99.90;;;;;;4956411;28;20326;-33
2023/09/20 11:08:03;;;;;;;;;;;19.40;99.90;;;;;;4954705;29;20078;-32
2023/09/20 11:10:30;;;;;;;;;;;19.40;99.90;;;;;;4954868;29;19952;-32
2023/09/20 11:12:56;;;;;;;;;;;19.40;99.90;;;;;;4953629;29;20009;-32
2023/09/20 11:15:23;;;;;;;;;;;19.40;99.90;;;;;;4954803;29;19985;-32
2023/09/20 11:17:51;;;;;;;;;;;19.50;99.90;;;;;;4955052;29;19926;-39
2023/09/20 11:20:18;;;;;;;;;;;19.50;99.90;;;;;;4953850;28;20071;-32
2023/09/20 11:22:44;;;;;;;;;;;19.60;99.90;;;;;;4961854;28;19930;-31
2023/09/20 11:25:12;;;;;;;;;;;19.60;99.90;;;;;;4953298;28;19926;-32
2023/09/20 11:27:38;;;;;;;;;;;19.70;99.90;;;;;;4971587;28;19985;-33
2023/09/20 11:30:05;;;;;;;;;;;19.70;99.90;;;;;;4955429;29;20367;-33
2023/09/20 11:32:32;;;;;;;;;;;19.70;99.90;;;;;;4968729;28;19973;-34
2023/09/20 11:35:01;;;;;;;;;;;19.80;99.90;;;;;;4973679;28;19926;-33
2023/09/20 11:37:30;;;;;;;;;;;19.90;99.90;;;;;;4974953;28;20024;-32
2023/09/20 11:39:56;;;;;;;;;;;19.90;99.90;;;;;;4974817;28;19926;-32
2023/09/20 11:42:24;;;;;;;;;;;20.00;99.90;;;;;;4957674;28;19977;-32
2023/09/20 11:44:55;;;;;;;;;;;20.10;99.90;;;;;;4957887;28;19926;-32
2023/09/20 11:47:21;;;;;;;;;;;20.20;99.90;;;;;;4972079;28;20286;-33
2023/09/20 11:49:50;;;;;;;;;;;20.20;99.90;;;;;;4972007;28;19937;-32
2023/09/20 11:52:19;;;;;;;;;;;20.30;99.90;;;;;;4971185;28;19930;-32
2023/09/20 11:54:46;;;;;;;;;;;20.50;99.90;;;;;;4974021;28;19926;-33
2023/09/20 11:57:15;;;;;;;;;;;20.80;99.90;;;;;;4974730;28;19974;-33
2023/09/20 11:59:42;;;;;;;;;;;21.00;99.90;;;;;;4973216;28;19932;-33
2023/09/20 12:02:09;;;;;;;;;;;21.20;99.90;;;;;;4972670;28;19926;-33
2023/09/20 12:04:36;;;;;;;;;;;21.30;99.90;;;;;;4974592;28;20407;-32
2023/09/20 12:07:03;;;;;;;;;;;21.40;99.90;;;;;;4972115;28;19965;-34
2023/09/20 12:09:31;;;;;;;;;;;21.50;99.90;;;;;;4973150;28;19930;-33
2023/09/20 12:11:59;;;;;;;;;;;21.60;99.90;;;;;;4973309;28;19926;-32
2023/09/20 12:14:25;;;;;;;;;;;21.60;99.90;;;;;;4971943;28;19973;-33
2023/09/20 12:16:52;;;;;;;;;;;21.50;99.90;;;;;;4972982;28;19926;-33
2023/09/20 12:19:18;;;;;;;;;;;21.50;99.90;;;;;;4973372;28;19926;-33
2023/09/20 12:21:45;;;;;;;;;;;21.40;99.90;;;;;;4971028;28;20024;-33
2023/09/20 12:24:13;;;;;;;;;;;21.30;99.90;;;;;;4964198;28;20025;-31
2023/09/20 12:26:41;;;;;;;;;;;21.30;99.90;;;;;;4970874;28;19984;-33
2023/09/20 12:29:08;;;;;;;;;;;21.30;99.90;;;;;;4956934;28;20402;-32
2023/09/20 12:31:35;;;;;;;;;;;21.30;99.90;;;;;;4954761;29;19932;-32
2023/09/20 12:34:01;;;;;;;;;;;21.30;99.90;;;;;;4970470;28;19926;-30
2023/09/20 12:36:28;;;;;;;;;;;21.40;99.90;;;;;;4972462;28;20381;-33
2023/09/20 12:38:55;;;;;;;;;;;21.40;99.90;;;;;;4956577;28;20341;-32
2023/09/20 12:41:22;;;;;;;;;;;21.60;99.90;;;;;;4972964;28;19981;-35
2023/09/20 12:43:50;;;;;;;;;;;21.70;99.90;;;;;;4970709;28;20059;-34
2023/09/20 12:46:17;;;;;;;;;;;21.70;99.90;;;;;;4973062;28;20017;-33
2023/09/20 12:48:44;;;;;;;;;;;21.80;99.90;;;;;;4969312;28;19930;-33
2023/09/20 12:51:12;;;;;;;;;;;22.00;99.90;;;;;;4969493;28;19927;-33
2023/09/20 12:53:38;;;;;;;;;;;22.00;99.90;;;;;;4969305;28;19966;-33
2023/09/20 12:56:07;;;;;;;;;;;22.10;99.90;;;;;;4953732;29;19981;-33
2023/09/20 12:58:34;;;;;;;;;;;22.30;99.90;;;;;;4952045;29;20042;-32
2023/09/20 13:01:02;;;;;;;;;;;22.30;99.90;;;;;;4953193;29;20323;-33
2023/09/20 13:03:31;;;;;;;;;;;22.30;99.90;;;;;;4967458;28;20021;-32
2023/09/20 13:05:58;;;;;;;;;;;22.40;99.90;;;;;;4953374;29;19927;-32
2023/09/20 13:08:25;;;;;;;;;;;22.50;99.90;;;;;;4952065;29;19927;-33
2023/09/20 13:10:51;;;;;;;;;;;22.50;99.90;;;;;;4954176;29;20291;-33
2023/09/20 13:13:18;;;;;;;;;;;22.60;99.90;;;;;;4969131;28;19981;-35
2023/09/20 13:15:45;;;;;;;;;;;22.60;99.90;;;;;;4954210;29;19935;-32
2023/09/20 13:18:13;;;;;;;;;;;22.70;99.90;;;;;;4951981;29;19927;-32
2023/09/20 13:20:41;;;;;;;;;;;22.80;99.90;;;;;;4952013;29;20002;-34
2023/09/20 13:23:07;;;;;;;;;;;22.90;99.90;;;;;;4953750;29;19931;-33
2023/09/20 13:25:34;;;;;;;;;;;23.00;99.90;;;;;;4940761;29;20375;-32
2023/09/20 13:28:02;;;;;;;;;;;23.10;99.90;;;;;;4944558;29;19969;-33
2023/09/20 13:30:29;;;;;;;;;;;23.00;99.90;;;;;;4952601;29;19933;-33
2023/09/20 13:32:56;;;;;;;;;;;23.00;99.90;;;;;;4950821;28;19931;-33
2023/09/20 13:35:24;;;;;;;;;;;23.00;99.90;;;;;;4969020;28;19927;-34
2023/09/20 13:37:50;;;;;;;;;;;23.00;99.90;;;;;;4952251;29;19981;-32
2023/09/20 13:40:18;;;;;;;;;;;22.90;99.90;;;;;;4967980;28;20103;-32
2023/09/20 13:42:45;;;;;;;;;;;22.80;99.90;;;;;;4968639;28;19954;-33
2023/09/20 13:45:15;;;;;;;;;;;22.70;99.90;;;;;;4967629;28;19989;-32
2023/09/20 13:47:42;;;;;;;;;;;22.60;99.90;;;;;;4955632;28;19932;-32
2023/09/20 13:50:09;;;;;;;;;;;22.60;99.90;;;;;;4972869;28;19927;-34
2023/09/20 13:52:40;;;;;;;;;;;22.60;99.90;;;;;;4972117;28;20298;-32
2023/09/20 13:55:08;;;;;;;;;;;22.60;99.90;;;;;;4955838;28;19981;-32
2023/09/20 13:57:35;;;;;;;;;;;22.60;99.90;;;;;;4955179;28;19941;-31
2023/09/20 14:00:14;;;;;;;;;;;22.50;99.90;;;;;;4969971;28;20486;-33
2023/09/20 14:02:41;;;;;;;;;;;22.50;99.90;;;;;;4971012;28;20018;-33
2023/09/20 14:05:14;;;;;;;;;;;22.40;99.90;;;;;;4971869;28;19961;-33
2023/09/20 14:07:44;;;;;;;;;;;22.40;99.90;;;;;;4971486;28;19934;-33
2023/09/20 14:10:10;;;;;;;;;;;22.40;99.90;;;;;;4953965;28;19973;-34
2023/09/20 14:12:38;;;;;;;;;;;22.40;99.90;;;;;;4954823;28;19926;-32
2023/09/20 14:15:06;;;;;;;;;;;22.40;99.90;;;;;;4971747;28;19930;-34
2023/09/20 14:17:33;;;;;;;;;;;22.50;99.90;;;;;;4958891;28;19981;-33
2023/09/20 14:20:05;;;;;;;;;;;22.50;99.90;;;;;;4975492;28;19926;-33
2023/09/20 14:22:32;;;;;;;;;;;22.50;99.90;;;;;;4974510;28;19933;-34
2023/09/20 14:25:00;;;;;;;;;;;22.60;99.90;;;;;;4974937;28;19926;-32
2023/09/20 14:27:27;;;;;;;;;;;22.60;99.90;;;;;;4975968;28;20187;-32
2023/09/20 14:29:54;;;;;;;;;;;22.60;99.90;;;;;;4976099;28;20409;-32
2023/09/20 14:32:22;;;;;;;;;;;22.60;99.90;;;;;;4971538;28;19926;-34
2023/09/20 14:34:50;;;;;;;;;;;22.50;99.90;;;;;;4972084;28;19933;-34
2023/09/20 14:37:16;;;;;;;;;;;22.50;99.90;;;;;;4973798;28;19933;-33
2023/09/20 14:39:43;;;;;;;;;;;22.40;99.90;;;;;;4954786;28;20319;-32
2023/09/20 14:42:11;;;;;;;;;;;22.40;99.90;;;;;;4970974;28;19930;-33
2023/09/20 14:44:38;;;;;;;;;;;22.40;99.90;;;;;;4974296;28;20334;-34
2023/09/20 14:47:05;;;;;;;;;;;22.40;99.90;;;;;;4971691;28;20362;-34
2023/09/20 14:49:31;;;;;;;;;;;22.40;99.90;;;;;;4972811;28;19984;-34
2023/09/20 14:52:01;;;;;;;;;;;22.40;99.90;;;;;;4973867;28;19927;-34
2023/09/20 14:54:28;;;;;;;;;;;22.50;99.90;;;;;;4970566;28;20431;-34
2023/09/20 14:56:56;;;;;;;;;;;22.50;99.90;;;;;;4960588;28;19930;-32
2023/09/20 14:59:24;;;;;;;;;;;22.50;99.90;;;;;;4971577;28;19926;-33